Flight Track Log - Related Links

Times and Time Zones

All times are in EDT time to prevent confusion due to time zone crossing. See the EJA929 flight status page for this flight to view local times or setup timezone preferences in your user account.

Time Position Orientation Groundspeed Altitude Reporting Facility
EDT Latitude Longitude Course Direction KTS MPH feet Rate Location/Type
Wed 04:14:26 PM 29.9661 -95.3456 218° Southwest 180 207 800  Level Houston Center
Wed 04:15:09 PM 29.9350 -95.3733 218° Southwest 250 288 2,800 1,959 Climbing Houston Center
Wed 04:16:04 PM 29.9858 -95.4228 320° Northwest 284 327 4,000 1,200 Climbing Houston Center
Wed 04:16:09 PM 29.9892 -95.4225 North 284 327 4,000 4,746 Level Houston Center
Wed 04:17:11 PM 30.0644 -95.4306 355° North 270 311 9,300 4,016 Climbing Houston Center
Wed 04:18:13 PM 30.1561 -95.4378 356° North 333 383 12,300 2,661 Climbing Houston Center
Wed 04:19:15 PM 30.2656 -95.4481 355° North 387 445 14,800 2,419 Climbing Houston Center
Wed 04:20:17 PM 30.3844 -95.4583 356° North 422 486 17,300 2,371 Climbing Houston Center
Wed 04:21:19 PM 30.5022 -95.4678 356° North 426 490 19,700 2,177 Climbing Houston Center
Wed 04:22:21 PM 30.6408 -95.4989 349° North 420 483 21,800 1,632 Climbing Houston Center
Wed 04:23:24 PM 30.7472 -95.5236 349° North 428 493 23,100 1,056 Climbing Houston Center
Wed 04:24:26 PM 30.8942 -95.5556 349° North 441 507 24,000 435 Climbing Houston Center
Wed 04:25:28 PM 31.0264 -95.5858 349° North 472 543 24,000  Level Houston Center
Wed 04:26:30 PM 31.1639 -95.6172 349° North 493 567 24,000  Level Houston Center
Wed 04:27:32 PM 31.2956 -95.6472 349° North 483 556 24,000  Level Houston Center
Wed 04:28:34 PM 31.4161 -95.7017 339° North 468 539 24,000  Level Houston Center
Wed 04:29:36 PM 31.5281 -95.7753 331° Northwest 458 527 24,000  Level Houston Center
Wed 04:30:38 PM 31.6411 -95.8503 331° Northwest 462 532 24,000 -240 Level Houston Center
Wed 04:31:41 PM 31.7747 -95.9400 330° Northwest 460 529 23,500 -1,392 Descending Houston Center
Wed 04:32:43 PM 31.8872 -96.0158 330° Northwest 463 533 21,100 -2,371 Descending Houston Center
Wed 04:33:45 PM 31.9992 -96.0892 331° Northwest 459 528 18,600 -2,323 Descending Houston Center
Wed 04:34:47 PM 32.1044 -96.1625 329° Northwest 433 498 16,300 -2,150 Descending Houston Center
Wed 04:35:45 PM 32.1972 -96.2275 329° Northwest 429 494 14,300 -2,186 Descending Fort Worth Center
Wed 04:36:45 PM 32.2981 -96.2878 333° Northwest 409 471 12,000 -2,250 Descending Fort Worth Center
Wed 04:37:45 PM 32.4072 -96.3528 333° Northwest 403 464 9,800 -1,550 Descending Fort Worth Center
Wed 04:38:45 PM 32.4786 -96.3964 333° Northwest 354 407 8,900 -1,400 Descending Fort Worth Center
Wed 04:39:45 PM 32.5603 -96.4447 333° Northwest 301 346 7,000 -1,850 Descending Fort Worth Center
Wed 04:40:45 PM 32.6233 -96.4836 333° Northwest 284 327 5,200 -1,000 Descending Fort Worth Center
Wed 04:41:45 PM 32.6947 -96.5369 328° Northwest 279 321 5,000 -100 Descending Fort Worth Center
Wed 04:42:45 PM 32.7492 -96.5883 322° Northwest 279 321 5,000  Level Fort Worth Center
Wed 04:43:45 PM 32.8144 -96.6544 320° Northwest 279 321 5,000 -500 Level Fort Worth Center
Wed 04:44:45 PM 32.8669 -96.7086 319° Northwest 279 321 4,000 -923 Descending Fort Worth Center
Wed 04:45:42 PM 32.9167 -96.7667 316° Northwest 236 272 3,200 -462 Descending Dallas / Fort Worth TRACON
Wed 04:46:42 PM 32.9333 -96.8333 287° West 209 241 3,100 -600 Descending Dallas / Fort Worth TRACON
Wed 04:47:42 PM 32.9167 -96.9000 253° West 175 201 2,000 -900 Descending Dallas / Fort Worth TRACON
Wed 04:48:42 PM 32.8833 -96.8833 157° South 145 167 1,300 -700 Descending Dallas / Fort Worth TRACON

Login

Don't have an account? Register now (free) for customized features, flight alerts, and more!